Latest Weather Observations for Rottnest Island

IDW60801

Issued at 9:35 pm WST Wednesday 22 October 2014 (issued every 30 minutes, with the page automatically refreshed every 10 minutes)

About weather observations | Map of weather stations | Latest weather observations for WA | Other Formats
Station Details ID: 009193 Name: ROTTNEST ISLAND Lat: -32.01 Lon: 115.50 Height: 43.1 m
Data from the previous 72 hours. | See also: Recent months at Rottnest Island
Date/Time
WST
Temp
°C
App
Temp
°C
Dew
Point
Rel
Hum
%
Delta-T
°C
Wind Press
QNH
hPa
Press
MSL
hPa
Rain
since 9 am
mm
Dir
 
Spd
km/h
Gust
km/h
Spd
kts
Gust
kts
22/09:30pm 17.6 13.6 14.1 80 2.0 NNW 28 35 15 19 1014.3 1014.2 0.2
22/09:00pm 17.5 14.8 14.6 83 1.7 N 22 28 12 15 1013.7 1013.6 0.2
22/08:30pm 18.9 14.5 14.0 73 2.8 NW 30 41 16 22 1014.2 1014.1 0.0
22/08:00pm 18.8 13.5 14.1 74 2.7 NW 35 44 19 24 1014.1 1014.0 0.0
22/07:30pm 18.6 14.2 14.1 75 2.6 NW 30 39 16 21 1013.8 1013.7 0.0
22/07:00pm 18.4 14.9 13.3 72 2.9 WNW 24 33 13 18 1013.3 1013.2 0.0
22/06:30pm 18.7 13.7 13.3 71 3.1 WNW 32 43 17 23 1013.3 1013.2 0.0
22/06:00pm 19.1 14.2 13.7 71 3.1 WNW 32 41 17 22 1012.9 1012.8 0.0
22/05:30pm 19.7 13.6 14.1 70 3.2 WNW 39 50 21 27 1012.9 1012.8 0.0
22/05:00pm 20.2 13.7 15.2 73 3.0 WNW 43 54 23 29 1012.5 1012.4 0.0
22/04:30pm 20.1 13.8 15.7 76 2.6 WNW 43 52 23 28 1012.3 1012.2 0.0
22/04:00pm 20.8 15.2 15.6 72 3.1 WNW 39 52 21 28 1012.2 1012.1 0.0
22/03:30pm 21.6 15.8 16.1 71 3.3 WNW 41 52 22 28 1012.0 1011.9 0.0
22/03:00pm 21.5 15.3 16.0 71 3.3 WNW 43 56 23 30 1011.9 1011.8 0.0
22/02:30pm 22.0 15.4 16.3 70 3.5 WNW 46 57 25 31 1011.7 1011.6 0.0
22/02:00pm 22.7 15.9 16.7 69 3.7 WNW 48 61 26 33 1011.5 1011.4 0.0
22/01:36pm 22.3 15.8 15.2 64 4.2 NW 43 61 23 33 1011.3 1011.2 0.0
22/01:30pm 23.0 17.5 15.8 64 4.3 NW 39 50 21 27 1011.3 1011.2 0.0
22/01:00pm 23.4 18.6 14.7 58 5.2 NW 33 43 18 23 1011.4 1011.3 0.0
22/12:30pm 23.7 19.3 14.1 55 5.7 NW 30 37 16 20 1011.6 1011.5 0.0
22/12:00pm 25.0 22.6 13.9 50 6.6 NNW 19 22 10 12 1011.7 1011.6 0.0
22/11:30am 26.3 22.4 12.0 41 8.2 N 24 33 13 18 1012.0 1011.9 0.0
22/11:00am 25.7 22.5 11.8 42 7.9 NE 20 28 11 15 1012.1 1012.0 0.0
22/10:30am 24.4 21.1 11.7 45 7.2 NE 20 28 11 15 1012.5 1012.4 0.0
22/10:00am 23.4 20.4 11.8 48 6.6 NNE 19 26 10 14 1013.1 1013.0 0.0
22/09:30am 22.7 19.5 11.1 48 6.5 N 19 26 10 14 1013.8 1013.7 0.0
22/09:00am 21.6 19.3 14.0 62 4.4 N 19 22 10 12 1014.3 1014.2 0.0
22/08:30am 21.4 18.8 13.3 60 4.7 N 19 28 10 15 1014.4 1014.3 0.0
22/08:00am 21.4 18.5 14.1 63 4.3 N 22 28 12 15 1014.5 1014.4 0.0
22/07:30am 20.3 15.4 12.5 61 4.4 NE 30 41 16 22 1013.5 1013.4 0.0
22/07:00am 19.6 14.8 12.8 65 3.8 ENE 30 39 16 21 1013.0 1012.9 0.0
22/06:30am 18.8 13.5 12.5 67 3.5 ENE 32 46 17 25 1013.0 1012.9 0.0
22/06:00am 18.7 12.5 12.7 68 3.4 E 37 56 20 30 1012.8 1012.7 0.0
22/05:56am 18.7 12.9 12.7 68 3.4 ENE 35 54 19 29 1012.8 1012.7 0.0
22/05:30am 18.8 12.6 12.5 67 3.5 E 37 52 20 28 1012.7 1012.6 0.0
22/05:16am 18.9 14.0 12.4 66 3.6 E 30 50 16 27 1012.7 1012.6 0.0
22/05:00am 18.6 15.3 12.8 69 3.3 E 22 33 12 18 1012.9 1012.8 0.0
22/04:30am 18.5 15.2 12.7 69 3.3 E 22 32 12 17 1013.1 1013.0 0.0
22/04:00am 18.2 14.8 12.6 70 3.1 E 22 32 12 17 1013.3 1013.2 0.0
22/03:30am 18.2 14.3 12.2 68 3.3 E 24 32 13 17 1013.8 1013.7 0.0
22/03:00am 18.5 15.3 12.0 66 3.6 E 20 28 11 15 1014.1 1014.0 0.0
22/02:30am 18.5 16.1 12.5 68 3.4 ESE 17 20 9 11 1014.5 1014.4 0.0
22/02:00am 18.7 16.6 11.0 61 4.2 ESE 13 17 7 9 1014.7 1014.6 0.0
22/01:30am 17.9 15.9 11.5 66 3.5 E 13 17 7 9 1015.1 1015.0 0.0
22/01:00am 17.8 15.7 12.3 70 3.0 ESE 15 17 8 9 1015.6 1015.5 0.0
22/12:30am 17.7 15.6 13.6 77 2.3 ESE 17 20 9 11 1016.2 1016.1 0.0
22/12:00am 17.1 15.0 13.6 80 2.0 SE 17 20 9 11 1016.5 1016.4 0.0
 
Date/Time
WST
Temp
°C
App
Temp
°C
Dew
Point
Rel
Hum
%
Delta-T
°C
Wind Press
QNH
hPa
Press
MSL
hPa
Rain
since 9 am
mm
Dir
 
Spd
km/h
Gust
km/h
Spd
kts
Gust
kts
21/11:30pm 17.3 14.9 13.8 80 2.0 SSE 19 22 10 12 1016.6 1016.5 0.0
21/11:00pm 17.4 14.6 13.3 77 2.3 SSE 20 24 11 13 1016.9 1016.8 0.0
21/10:30pm 17.7 14.2 13.4 76 2.4 SSE 24 28 13 15 1017.4 1017.3 0.0
21/10:00pm 17.7 13.6 12.6 72 2.8 SE 26 33 14 18 1017.5 1017.4 0.0
21/09:30pm 18.1 13.0 13.0 72 2.9 SE 32 39 17 21 1018.1 1018.0 0.0
21/09:00pm 18.2 14.3 13.3 73 2.8 SSE 26 35 14 19 1018.6 1018.5 0.0
21/08:30pm 18.2 14.1 13.7 75 2.6 SSE 28 35 15 19 1019.2 1019.1 0.0
21/08:00pm 18.0 13.3 13.1 73 2.8 SSE 30 35 16 19 1019.1 1019.0 0.0
21/07:30pm 17.9 13.6 13.2 74 2.7 SSE 28 33 15 18 1019.1 1019.0 0.0
21/07:00pm 17.6 12.7 12.5 72 2.8 S 30 33 16 18 1019.3 1019.2 0.0
21/06:30pm 17.3 12.4 12.6 74 2.6 S 30 33 16 18 1019.3 1019.2 0.0
21/06:00pm 17.6 13.0 12.3 71 2.9 S 28 32 15 17 1019.0 1018.9 0.0
21/05:30pm 18.0 13.6 11.8 67 3.4 S 26 32 14 17 1018.9 1018.8 0.0
21/05:00pm 18.4 13.6 11.5 64 3.8 S 28 32 15 17 1018.9 1018.8 0.0
21/04:30pm 18.8 13.9 11.4 62 4.1 S 28 33 15 18 1019.2 1019.1 0.0
21/04:00pm 18.7 13.7 11.0 61 4.2 SSW 28 32 15 17 1019.3 1019.2 0.0
21/03:30pm 19.2 14.4 10.2 56 4.8 SSW 26 32 14 17 1019.6 1019.5 0.0
21/03:00pm 18.9 14.2 10.5 58 4.5 SSW 26 32 14 17 1020.0 1019.9 0.0
21/02:30pm 18.9 14.7 9.9 56 4.8 S 22 28 12 15 1020.2 1020.1 0.0
21/02:00pm 19.1 14.6 9.9 55 4.9 S 24 28 13 15 1020.5 1020.4 0.0
21/01:30pm 18.5 13.9 9.6 56 4.7 S 24 28 13 15 1020.7 1020.6 0.0
21/01:00pm 18.6 14.6 10.4 59 4.4 S 22 26 12 14 1021.1 1021.0 0.0
21/12:30pm 18.8 15.2 10.6 59 4.4 S 20 26 11 14 1021.5 1021.4 0.0
21/12:00pm 18.7 15.4 11.0 61 4.2 S 19 22 10 12 1021.5 1021.4 0.0
21/11:30am 18.8 15.6 11.4 62 4.1 S 19 22 10 12 1021.7 1021.6 0.0
21/11:00am 17.9 14.7 11.2 65 3.6 S 19 24 10 13 1021.9 1021.8 0.0
21/10:30am 18.2 14.7 11.0 63 3.9 SSE 20 26 11 14 1022.1 1022.0 0.0
21/10:00am 17.5 13.8 10.1 62 3.9 SSE 20 26 11 14 1022.3 1022.2 0.0
21/09:30am 17.3 13.8 10.9 66 3.4 SSE 20 28 11 15 1022.6 1022.5 0.0
21/09:00am 16.7 13.2 11.0 69 3.1 SE 20 26 11 14 1022.5 1022.4 0.0
21/08:30am 16.6 13.8 11.5 72 2.8 SE 17 24 9 13 1022.4 1022.3 0.0
21/08:00am 16.5 13.9 11.9 74 2.5 SE 17 26 9 14 1022.1 1022.0 0.0
21/07:30am 16.0 13.5 11.0 72 2.7 ESE 15 24 8 13 1022.0 1021.9 0.0
21/07:00am 15.6 13.1 11.2 75 2.4 ESE 15 20 8 11 1021.7 1021.6 0.0
21/06:30am 15.1 12.7 11.3 78 2.0 SE 15 20 8 11 1021.5 1021.4 0.0
21/06:00am 14.5 12.3 10.9 79 1.9 ESE 13 17 7 9 1021.4 1021.3 0.0
21/05:30am 14.4 12.2 10.8 79 1.9 ESE 13 15 7 8 1021.1 1021.0 0.0
21/05:00am 15.0 12.7 10.6 75 2.3 E 13 15 7 8 1020.9 1020.8 0.0
21/04:30am 15.3 14.0 9.2 67 3.1 S 6 9 3 5 1020.6 1020.5 0.0
21/04:00am 15.2 13.6 8.9 66 3.2 S 7 9 4 5 1020.3 1020.2 0.0
21/03:30am 15.2 15.0 9.1 67 3.1 CALM 0 0 0 0 1020.2 1020.1 0.0
21/03:00am 15.6 14.5 8.6 63 3.6 S 4 7 2 4 1019.9 1019.8 0.0
21/02:30am 15.5 14.1 9.0 65 3.3 S 6 9 3 5 1020.0 1019.9 0.0
21/02:00am 15.0 13.1 8.9 67 3.1 S 9 13 5 7 1019.9 1019.8 0.0
21/01:30am 15.6 13.7 9.1 65 3.3 SSW 9 17 5 9 1019.9 1019.8 0.0
21/01:00am 15.0 12.3 9.1 68 3.0 S 13 17 7 9 1020.0 1019.9 0.0
21/12:30am 14.7 11.9 8.6 67 3.1 S 13 17 7 9 1020.3 1020.2 0.0
21/12:00am 15.0 12.3 9.1 68 3.0 S 13 17 7 9 1020.3 1020.2 0.0
 
Date/Time
WST
Temp
°C
App
Temp
°C
Dew
Point
Rel
Hum
%
Delta-T
°C
Wind Press
QNH
hPa
Press
MSL
hPa
Rain
since 9 am
mm
Dir
 
Spd
km/h
Gust
km/h
Spd
kts
Gust
kts
20/11:30pm 14.9 11.4 8.8 67 3.1 S 17 20 9 11 1020.3 1020.2 0.0
20/11:00pm 15.4 11.9 8.9 65 3.3 S 17 20 9 11 1020.5 1020.4 0.0
20/10:30pm 15.5 12.0 8.7 64 3.5 S 17 22 9 12 1020.6 1020.5 0.0
20/10:00pm 16.1 11.7 8.8 62 3.7 S 22 28 12 15 1020.4 1020.3 0.0
20/09:30pm 15.8 12.3 8.8 63 3.6 S 17 22 9 12 1020.7 1020.6 0.0
20/09:00pm 16.2 12.2 8.9 62 3.7 S 20 28 11 15 1020.8 1020.7 0.0
20/08:30pm 16.3 12.0 9.5 64 3.5 S 22 28 12 15 1020.6 1020.5 0.0
20/08:00pm 16.4 12.1 9.3 63 3.7 S 22 30 12 16 1020.5 1020.4 0.0
20/07:30pm 16.6 12.1 10.0 65 3.5 S 24 33 13 18 1020.4 1020.3 0.0
20/07:00pm 16.7 11.5 10.3 66 3.4 S 28 35 15 19 1020.0 1019.9 0.0
20/06:30pm 16.8 11.8 10.9 68 3.2 S 28 33 15 18 1020.0 1019.9 0.0
20/06:00pm 16.8 11.8 10.9 68 3.2 SSW 28 35 15 19 1019.6 1019.5 0.0
20/05:30pm 18.1 14.3 11.2 64 3.8 SSW 22 30 12 16 1019.4 1019.3 0.0
20/05:00pm 18.3 14.0 10.7 61 4.1 SSW 24 30 13 16 1019.3 1019.2 0.0
20/04:30pm 18.7 13.7 11.0 61 4.2 SW 28 35 15 19 1019.2 1019.1 0.0
20/04:00pm 18.9 13.9 11.0 60 4.3 SW 28 37 15 20 1018.9 1018.8 0.0
20/03:30pm 19.3 16.3 12.6 65 3.8 S 20 24 11 13 1018.8 1018.7 0.0
20/03:00pm 19.1 13.8 12.4 65 3.7 SW 32 39 17 21 1018.8 1018.7 0.0
20/02:30pm 20.1 16.3 12.3 61 4.4 SW 24 32 13 17 1018.6 1018.5 0.0
20/02:00pm 19.9 15.3 12.2 61 4.3 SW 28 33 15 18 1018.5 1018.4 0.0
20/01:30pm 19.0 14.6 11.8 63 4.0 SW 26 30 14 16 1018.7 1018.6 0.0
20/01:00pm 18.6 14.9 11.4 63 3.9 SSW 22 30 12 16 1018.7 1018.6 0.0
20/12:30pm 17.9 13.7 12.4 70 3.1 SSW 26 32 14 17 1018.5 1018.4 0.0
20/12:00pm 18.1 13.8 11.9 67 3.4 SSW 26 32 14 17 1018.4 1018.3 0.0
20/11:30am 18.6 14.1 11.4 63 3.9 S 26 32 14 17 1018.2 1018.1 0.0
20/11:00am 18.7 13.9 11.8 64 3.8 S 28 33 15 18 1018.3 1018.2 0.0
20/10:30am 18.1 13.8 12.1 68 3.3 S 26 32 14 17 1018.2 1018.1 0.0
20/10:00am 18.2 13.5 12.0 67 3.4 S 28 33 15 18 1018.0 1017.9 0.0
20/09:30am 18.2 13.4 11.7 66 3.6 S 28 35 15 19 1018.1 1018.0 0.0
20/09:00am 16.9 12.1 11.6 71 2.9 S 28 39 15 21 1018.2 1018.1 4.2
20/08:30am 16.9 12.1 11.6 71 2.9 S 28 35 15 19 1018.0 1017.9 4.2
20/08:00am 16.7 11.7 11.0 69 3.1 S 28 35 15 19 1018.0 1017.9 4.2
20/07:30am 16.2 11.1 10.7 70 2.9 S 28 35 15 19 1017.6 1017.5 4.2
20/07:00am 16.4 11.8 10.9 70 2.9 S 26 35 14 19 1017.2 1017.1 4.2
20/06:30am 15.4 11.2 11.0 75 2.3 S 24 30 13 16 1016.9 1016.8 4.2
20/06:00am 15.1 10.7 10.5 74 2.4 S 24 33 13 18 1016.4 1016.3 4.2
20/05:30am 14.7 8.8 10.5 76 2.2 S 32 39 17 21 1016.0 1015.9 4.2
20/05:00am 15.0 8.7 11.0 77 2.1 S 35 43 19 23 1015.8 1015.7 4.2
20/04:30am 15.0 8.8 10.2 73 2.5 S 33 43 18 23 1015.3 1015.2 4.2
20/04:00am 14.9 8.0 10.3 74 2.4 S 37 46 20 25 1015.4 1015.3 4.2
20/03:30am 14.8 9.3 10.4 75 2.3 S 30 43 16 23 1015.4 1015.3 4.2
20/03:00am 14.6 8.6 10.0 74 2.4 S 32 39 17 21 1015.4 1015.3 4.2
20/02:30am 14.6 8.9 9.8 73 2.5 S 30 39 16 21 1015.3 1015.2 4.2
20/02:00am 14.8 9.5 10.0 73 2.5 S 28 37 15 20 1015.1 1015.0 4.2
20/01:30am 14.9 9.0 10.3 74 2.4 S 32 39 17 21 1015.1 1015.0 4.2
20/01:00am 15.0 8.1 10.4 74 2.4 S 37 46 20 25 1015.1 1015.0 4.2
20/12:30am 14.8 8.3 10.2 74 2.4 S 35 46 19 25 1015.8 1015.7 4.2
20/12:00am 14.6 7.9 9.8 73 2.5 S 35 43 19 23 1016.0 1015.9 4.2
 
Date/Time
WST
Temp
°C
App
Temp
°C
Dew
Point
Rel
Hum
%
Delta-T
°C
Wind Press
QNH
hPa
Press
MSL
hPa
Rain
since 9 am
mm
Dir
 
Spd
km/h
Gust
km/h
Spd
kts
Gust
kts
19/11:30pm 14.6 8.5 9.6 72 2.6 S 32 39 17 21 1016.2 1016.1 4.2
19/11:00pm 14.4 8.1 9.0 70 2.7 S 32 41 17 22 1016.1 1016.0 4.2
19/10:30pm 14.2 8.3 9.2 72 2.6 S 30 39 16 21 1016.2 1016.1 4.2
19/10:00pm 14.6 8.9 9.8 73 2.5 S 30 35 16 19 1016.4 1016.3 4.2

Other Formats:

Comma delimited format used in spreadsheet applications
http://www.bom.gov.au/fwo/IDW60801/IDW60801.94602.axf

JavaScript Object Notation format (JSON) in row-major order
http://www.bom.gov.au/fwo/IDW60801/IDW60801.94602.json